CDT,Max TemperatureF,Mean TemperatureF,Min TemperatureF,Max Dew PointF,MeanDew PointF,Min DewpointF,Max Humidity, Mean Humidity, Min Humidity, Max Sea Level PressureIn, Mean Sea Level PressureIn, Min Sea Level PressureIn, Max VisibilityMiles, Mean VisibilityMiles, Min VisibilityMiles, Max Wind SpeedMPH, Mean Wind SpeedMPH, Max Gust SpeedMPH,PrecipitationIn, CloudCover, Events, WindDirDegrees
2013-7-1,86,76,66,65,64,62,93,71,48,29.96,29.90,29.85,10,10,10,15,6,20,0.00,2,,343
2013-7-2,87,75,62,63,60,55,93,64,35,30.04,30.01,29.96,10,10,9,10,3,18,0.00,1,,337
2013-7-3,90,76,62,66,61,55,93,64,34,30.11,30.05,30.01,10,9,4,10,5,15,0.00,0,,18
2013-7-4,91,77,62,68,59,51,87,57,27,30.04,30.01,29.96,10,10,10,13,4,20,0.00,0,,346
2013-7-5,92,79,65,71,65,59,87,62,37,30.05,30.01,29.98,10,10,7,29,4,37,0.00,1,Thunderstorm,105
2013-7-6,90,79,68,72,69,66,97,72,47,30.06,30.03,29.97,10,8,0,13,6,17,0.00,4,Fog,133
2013-7-7,91,82,72,73,71,69,93,73,52,30.10,30.06,30.02,10,10,8,10,5,14,0.00,3,,132
2013-7-8,93,83,72,74,72,69,100,75,49,30.16,30.11,30.07,10,10,7,14,6,18,0.00,2,,200
2013-7-9,94,84,74,74,71,66,87,66,44,30.17,30.11,30.04,10,10,10,15,8,18,0.00,2,,221
2013-7-10,96,86,76,74,73,70,88,67,46,30.10,30.02,29.94,10,10,10,15,9,20,0.00,1,,227
2013-7-11,97,85,72,79,72,69,87,66,45,29.97,29.94,29.89,10,9,1,25,5,32,0.64,2,Rain-Thunderstorm,258
2013-7-12,90,80,69,71,66,59,93,65,37,30.01,29.97,29.94,10,10,8,16,7,21,0.00,0,,15
2013-7-13,87,77,66,66,63,58,93,65,37,30.03,29.99,29.96,10,10,7,12,6,15,0.00,0,,14
2013-7-14,92,78,64,72,67,63,93,79,65,30.04,29.99,29.95,10,9,7,22,7,29,0.48,1,,89
2013-7-15,91,80,69,75,73,70,85,70,55,30.16,30.12,30.07,10,10,10,16,5,20,T,1,Thunderstorm,140
2013-7-16,91,83,74,73,72,69,94,75,55,30.25,30.20,30.16,10,10,9,15,7,18,0.00,2,,99
2013-7-17,95,83,70,73,71,67,93,67,41,30.28,30.22,30.15,10,10,10,10,4,16,0.00,0,,62
2013-7-18,94,82,69,75,71,66,100,78,56,30.17,30.10,30.05,10,6,0,22,2,29,0.31,2,Fog-Rain-Thunderstorm,305
2013-7-19,88,78,67,73,70,66,100,78,55,30.10,30.05,29.97,10,5,0,9,2,12,0.00,4,Fog,167
2013-7-20,92,82,72,74,72,67,94,71,47,30.00,29.96,29.88,10,10,6,10,4,43,0.00,1,,187
2013-7-21,91,82,73,73,71,69,93,73,52,30.01,29.96,29.90,10,10,10,18,9,39,0.00,1,,211
2013-7-22,93,85,77,75,73,72,88,70,52,30.00,29.96,29.91,10,10,10,16,10,22,T,4,Rain,229
2013-7-23,93,85,76,77,74,66,91,74,56,30.00,29.94,29.86,10,10,10,25,9,32,0.02,1,,205
2013-7-24,84,79,74,74,72,70,94,82,69,29.97,29.93,29.84,10,8,1,15,3,20,0.21,4,Rain,232
2013-7-25,89,80,70,73,67,60,94,69,43,30.08,30.04,29.96,10,10,6,13,7,,0.00,0,,6
2013-7-26,84,74,64,70,66,62,100,76,51,30.09,30.04,29.98,10,9,2,10,3,14,0.13,1,Rain,20
2013-7-27,85,77,68,72,70,68,97,80,63,29.97,29.95,29.92,10,8,3,14,6,17,0.20,5,Rain,48
2013-7-28,90,78,65,73,67,64,100,74,47,30.05,29.98,29.93,10,6,0,9,4,12,0.00,0,Fog,23
2013-7-29,92,81,70,74,71,68,97,73,49,30.14,30.09,30.05,10,10,9,10,6,15,0.00,0,,125
2013-7-30,94,84,74,74,71,62,94,66,38,30.16,30.09,30.04,10,9,4,14,6,17,T,0,Rain,179
2013-7-31,89,82,75,74,72,68,87,71,55,30.09,30.03,29.95,10,10,10,13,6,16,T,3,Rain,239